首页
METAR-TAF:

METAR-TAF

机场 :

普雷斯顿, 英格兰

纬度: 53-44-42N, 经度: 2-53-02W, 海拔: 17米

当前天气观测

该预报发布于5小时和36分钟前的15:50 UTC
风速10节,风向,在西北北转东北之间变化
温度 16°C
湿度 51%
气压 998 hPa
能见度10公里或以上
散云层高于4100英尺

METAR: EGNO 061550Z 36010KT 310V030 9999 SCT041 16/06 Q0998

时间: 22:26 (21:26 UTC)

预报

该预报发布于31小时和30分钟前的13:56 UTC
预报有效从05日的 15点(UTC)到 05日的 24点(UTC)
风速20节,风向西北
能见度10公里或以上
多云层高于3000英尺
短暂存在
从 05日的 15点(UTC)到 05日的 24点(UTC)
风速25节,风向西北,有时为35节阵风
能見度: 7000
阵雨
几率 30% :
短暂存在
从 05日的 15点(UTC)到 05日的 24点(UTC)
能見度: 4000
多云层高于1400英尺, 积雨云.
大阵雨

TAF: EGNO 051356Z 0515/0524 31020KT 9999 BKN030 TEMPO 0515/0524 31025G35KT 7000 SHRA PROB30 TEMPO 0515/0524 4000 +SHRA BKN014CB

超过4000个机场的气象观测和天气预报(METAR&TAF报告)。

可查询的气象台以黄色和红色小点在地图上表示。

将鼠标移到小点上方,可查看气象台名称。

然后点击查看天气观测和预报。

如需切换地图:点击带黑十字的绿色按钮放大地图;点击带横线的绿色按钮缩小地图;或者点击绿色箭头查看邻近地区的地图。


METAR-TAF: